createdAt,value
2023-01-27T00:10:19.835Z,46.00
2023-01-27T00:13:23.607Z,50.00
2023-01-27T00:15:56.086Z,50.00
2023-01-27T00:18:38.995Z,54.00
2023-01-27T00:27:32.576Z,51.00
2023-01-27T00:39:45.955Z,59.33
2023-01-27T00:42:30.922Z,61.00
2023-01-27T00:45:27.584Z,63.33
2023-01-27T00:47:59.313Z,68.75
2023-01-27T00:50:42.179Z,65.33
2023-01-27T00:56:18.880Z,55.67
2023-01-27T00:58:49.232Z,55.33
2023-01-27T01:01:27.432Z,51.67
2023-01-27T01:04:08.705Z,50.33
2023-01-27T01:06:58.418Z,54.00
2023-01-27T01:09:30.271Z,53.33
2023-01-27T01:12:05.824Z,46.33
2023-01-27T01:14:40.082Z,46.33
2023-01-27T01:17:08.834Z,42.33
2023-01-27T01:19:42.143Z,43.00
2023-01-27T01:22:12.439Z,40.00
2023-01-27T01:24:51.621Z,44.00
2023-01-27T01:27:21.546Z,42.00
2023-01-27T01:32:36.625Z,39.33
2023-01-27T01:35:09.301Z,41.33
2023-01-27T01:37:43.428Z,37.00
2023-01-27T01:40:14.887Z,43.00
2023-01-27T01:43:03.500Z,42.33
2023-01-27T01:45:37.803Z,41.33
2023-01-27T01:48:37.538Z,37.33
2023-01-27T01:51:26.628Z,17.00
2023-01-27T01:54:32.301Z,25.00
2023-01-27T01:57:15.821Z,26.33
2023-01-27T02:00:07.969Z,18.67
2023-01-27T02:02:41.659Z,26.67
2023-01-27T02:05:31.655Z,31.00
2023-01-27T02:08:06.510Z,39.67
2023-01-27T02:10:38.023Z,36.00
2023-01-27T02:13:09.852Z,33.00
2023-01-27T02:15:41.223Z,22.33
2023-01-27T02:18:25.171Z,31.00
2023-01-27T02:20:59.184Z,32.00
2023-01-27T02:24:13.048Z,38.33
2023-01-27T02:26:49.515Z,28.67
2023-01-27T02:29:20.056Z,29.33
2023-01-27T02:31:59.665Z,32.67
2023-01-27T02:34:37.130Z,36.67
2023-01-27T02:37:12.361Z,32.67
2023-01-27T02:39:50.272Z,28.33
2023-01-27T02:42:26.054Z,34.67
2023-01-27T02:44:55.595Z,33.33
2023-01-27T02:47:25.324Z,14.67
2023-01-27T02:49:57.352Z,25.33
2023-01-27T02:52:31.739Z,26.33
2023-01-27T02:55:17.732Z,39.67
2023-01-27T03:00:58.952Z,30.00
2023-01-27T03:03:35.541Z,24.00
2023-01-27T03:06:23.016Z,25.00
2023-01-27T03:09:00.850Z,27.00
2023-01-27T03:11:54.109Z,29.67
2023-01-27T03:14:54.803Z,30.33
2023-01-27T03:17:46.693Z,18.33
2023-01-27T03:26:17.081Z,20.00
2023-01-27T03:38:15.988Z,18.00
2023-01-27T03:44:43.677Z,12.00
2023-01-27T03:47:13.210Z,15.33
2023-01-27T03:49:59.401Z,18.00
2023-01-27T03:52:36.576Z,15.00
2023-01-27T03:55:22.031Z,12.00
2023-01-27T03:57:56.151Z,12.67
2023-01-27T04:00:46.761Z,18.67
2023-01-27T04:03:39.231Z,5.67
2023-01-27T04:06:47.788Z,17.00
2023-01-27T04:09:43.441Z,17.33
2023-01-27T04:16:33.016Z,18.33
2023-01-27T04:19:08.090Z,13.00
2023-01-27T04:21:51.959Z,9.67
2023-01-27T04:24:24.927Z,20.67
2023-01-27T04:27:21.332Z,19.33
2023-01-27T04:29:53.114Z,10.33
2023-01-27T04:32:24.678Z,15.33
2023-01-27T04:35:27.871Z,17.00
2023-01-27T04:38:08.666Z,15.00
2023-01-27T04:40:38.821Z,13.67
2023-01-27T04:43:14.735Z,19.33
2023-01-27T04:45:44.563Z,19.00
2023-01-27T04:48:22.509Z,11.33
2023-01-27T04:59:59.325Z,37.33
2023-01-27T05:02:31.601Z,45.00
2023-01-27T05:05:12.607Z,40.33
2023-01-27T05:10:31.663Z,36.00
2023-01-27T05:28:48.619Z,41.00
2023-01-27T05:31:41.831Z,44.33
2023-01-27T05:37:20.564Z,43.00
2023-01-27T05:39:54.684Z,124.75
2023-01-27T05:42:26.240Z,49.00
2023-01-27T06:15:46.832Z,46.33
2023-01-27T10:38:05.500Z,41.00
2023-01-27T10:41:10.679Z,13.00
2023-01-27T10:44:11.527Z,42.00
2023-01-27T10:47:20.007Z,44.50
2023-01-27T10:49:54.083Z,42.50
2023-01-27T10:52:52.769Z,43.50
2023-01-27T10:55:37.266Z,46.50
2023-01-27T10:58:28.656Z,48.00
2023-01-27T11:01:19.687Z,41.50
2023-01-27T11:04:16.722Z,43.75
2023-01-27T11:06:50.359Z,40.25
2023-01-27T11:09:51.110Z,39.00
2023-01-27T11:12:29.668Z,38.50
2023-01-27T11:15:01.430Z,39.75
2023-01-27T11:17:46.876Z,35.00
2023-01-27T11:20:37.438Z,37.00
2023-01-27T11:23:27.775Z,36.00
2023-01-27T11:26:17.335Z,38.25
2023-01-27T11:29:21.974Z,36.50
2023-01-27T11:32:27.536Z,35.50
2023-01-27T11:35:17.577Z,38.25
2023-01-27T11:38:14.482Z,34.50
2023-01-27T11:40:47.501Z,36.50
2023-01-27T11:43:26.591Z,32.75
2023-01-27T11:46:05.199Z,37.25
2023-01-27T11:48:43.325Z,34.00
2023-01-27T11:51:27.116Z,42.00
2023-01-27T11:54:09.846Z,24.50
2023-01-27T11:56:43.271Z,30.25
2023-01-27T11:59:20.489Z,33.75
2023-01-27T12:02:00.023Z,33.25
2023-01-27T12:04:56.750Z,30.00
2023-01-27T12:07:44.313Z,29.25
2023-01-27T12:10:38.173Z,29.50
2023-01-27T12:13:22.130Z,33.75
2023-01-27T12:16:02.528Z,28.75
2023-01-27T12:18:37.899Z,27.00
2023-01-27T12:21:09.779Z,26.50
2023-01-27T12:23:54.381Z,22.25
2023-01-27T12:26:45.278Z,27.75
2023-01-27T12:29:20.772Z,26.75
2023-01-27T12:31:53.269Z,28.75
2023-01-27T12:34:27.824Z,30.00
2023-01-27T12:37:00.135Z,31.75
2023-01-27T12:39:40.650Z,28.75
2023-01-27T12:42:39.068Z,25.75
2023-01-27T12:45:31.334Z,33.25
2023-01-27T12:48:21.083Z,35.25
2023-01-27T12:51:03.893Z,29.00
2023-01-27T12:53:33.899Z,30.00
2023-01-27T12:56:24.816Z,35.75
2023-01-27T12:59:01.141Z,26.25
2023-01-27T13:01:35.562Z,36.25
2023-01-27T13:04:27.281Z,29.50
2023-01-27T13:07:05.771Z,34.50
2023-01-27T13:10:07.476Z,28.25
2023-01-27T13:12:47.972Z,35.00
2023-01-27T13:18:25.792Z,23.75
2023-01-27T13:21:12.133Z,34.75
2023-01-27T13:23:56.259Z,31.25
2023-01-27T13:26:38.130Z,33.50
2023-01-27T13:29:09.751Z,35.50
2023-01-27T13:32:24.292Z,29.50
2023-01-27T13:35:26.304Z,23.50
2023-01-27T13:38:24.520Z,29.00
2023-01-27T13:40:53.081Z,27.25
2023-01-27T13:43:42.681Z,26.25
2023-01-27T13:46:17.330Z,29.50
2023-01-27T13:48:56.367Z,33.25
2023-01-27T13:51:30.476Z,30.75
2023-01-27T13:54:02.580Z,32.00
2023-01-27T13:56:42.776Z,31.50
2023-01-27T13:59:41.996Z,38.00
2023-01-27T14:02:45.513Z,31.25
2023-01-27T14:05:50.907Z,27.00
2023-01-27T14:08:54.760Z,33.00
2023-01-27T14:11:38.397Z,34.00
2023-01-27T14:14:28.191Z,31.25
2023-01-27T14:17:29.550Z,25.25
2023-01-27T14:20:14.701Z,33.75
2023-01-27T18:40:25.605Z,42.50
2023-01-27T18:42:55.821Z,41.00
2023-01-27T18:45:25.684Z,38.75
2023-01-27T18:48:03.620Z,31.75
2023-01-27T18:50:40.413Z,36.75
2023-01-27T18:53:18.963Z,36.00
2023-01-27T18:55:47.673Z,14.25
2023-01-27T18:58:18.275Z,38.75
2023-01-27T19:03:45.997Z,34.75
2023-01-27T19:06:21.489Z,40.50
2023-01-27T19:08:52.860Z,34.75
2023-01-27T19:11:21.724Z,34.33
2023-01-27T19:13:51.089Z,42.25
2023-01-27T19:16:21.558Z,40.67
2023-01-27T19:18:53.771Z,29.50
2023-01-27T19:21:24.191Z,42.67
2023-01-27T19:23:53.751Z,41.67
2023-01-27T19:26:25.417Z,41.33
2023-01-27T19:28:57.868Z,42.67
2023-01-27T19:34:20.687Z,38.50
2023-01-27T19:36:50.779Z,44.00
2023-01-27T19:39:32.155Z,45.00
2023-01-27T19:44:43.484Z,44.00
2023-01-27T19:47:14.561Z,40.67
2023-01-27T19:49:45.880Z,44.33
2023-01-27T19:52:16.278Z,44.00
2023-01-27T19:54:47.019Z,44.67
2023-01-27T19:57:18.050Z,43.33
2023-01-27T19:59:54.502Z,43.67
2023-01-27T20:02:24.613Z,46.33
2023-01-27T20:04:56.185Z,42.00
2023-01-27T20:07:25.051Z,42.67
2023-01-27T20:09:56.245Z,42.67
2023-01-27T20:12:24.703Z,41.00
2023-01-27T20:14:53.589Z,45.67
2023-01-27T20:17:22.415Z,42.33
2023-01-27T20:19:51.370Z,44.33
2023-01-27T20:22:21.281Z,42.00
2023-01-27T20:24:50.865Z,44.67
2023-01-27T20:27:20.357Z,46.00
2023-01-27T20:29:48.569Z,40.67
2023-01-27T20:32:22.760Z,45.00
2023-01-27T20:34:54.938Z,36.00
2023-01-27T20:37:23.589Z,45.67
2023-01-27T20:39:55.611Z,45.33
2023-01-27T20:42:25.324Z,43.33
2023-01-27T20:44:54.950Z,47.00
2023-01-27T20:47:25.166Z,51.00
2023-01-27T20:49:57.310Z,45.67
2023-01-27T20:52:27.143Z,44.00
2023-01-27T20:54:57.881Z,44.33
2023-01-27T20:57:40.856Z,46.67
2023-01-27T21:00:17.214Z,5.33
2023-01-27T21:02:46.243Z,47.67
2023-01-27T21:05:16.560Z,103.50
2023-01-27T21:07:48.489Z,48.67
2023-01-27T21:10:19.389Z,47.33
2023-01-27T21:13:07.551Z,43.67
2023-01-27T21:15:37.079Z,42.33
2023-01-27T21:18:06.818Z,37.00
2023-01-27T21:20:35.931Z,47.00
2023-01-27T21:23:06.190Z,40.67
2023-01-27T21:25:36.941Z,48.33
2023-01-27T21:28:06.694Z,46.67
2023-01-27T21:30:35.619Z,48.00
2023-01-27T21:33:05.552Z,49.67
2023-01-27T21:35:37.479Z,53.00
2023-01-27T21:38:08.030Z,48.67
2023-01-27T21:40:44.166Z,43.00
2023-01-27T21:43:37.530Z,36.00
2023-01-27T21:46:15.542Z,52.00
2023-01-27T21:48:44.890Z,42.33
2023-01-27T21:51:14.894Z,55.00
2023-01-27T21:53:55.807Z,54.67
2023-01-27T21:56:26.539Z,47.00
2023-01-27T21:58:55.193Z,47.00
2023-01-27T22:01:24.656Z,47.67
2023-01-27T22:03:57.881Z,46.33
2023-01-27T22:06:33.267Z,39.67
2023-01-27T22:09:02.547Z,47.33
2023-01-27T22:11:32.803Z,47.33
2023-01-27T22:14:02.028Z,42.33
2023-01-27T22:16:34.396Z,46.33
2023-01-27T22:19:24.055Z,50.33
2023-01-27T22:21:56.524Z,43.00
2023-01-27T22:24:33.191Z,47.67
2023-01-27T22:27:02.671Z,47.00
2023-01-27T22:29:46.134Z,47.00
2023-01-27T22:32:37.286Z,45.67
2023-01-27T22:35:08.471Z,46.00
2023-01-27T22:37:40.333Z,39.33
2023-01-27T22:40:11.347Z,49.00
2023-01-27T22:42:42.441Z,37.33
2023-01-27T22:45:21.529Z,47.67
2023-01-27T22:47:52.673Z,52.33
2023-01-27T22:50:31.351Z,44.33
2023-01-27T22:53:03.730Z,48.00
2023-01-27T22:55:33.047Z,45.00
2023-01-27T22:58:02.270Z,53.33
2023-01-27T23:00:33.862Z,47.67
2023-01-27T23:03:04.231Z,48.33
2023-01-27T23:05:35.596Z,49.00
2023-01-27T23:08:10.404Z,47.33
2023-01-27T23:10:41.306Z,44.33
2023-01-27T23:13:12.320Z,52.00
2023-01-27T23:15:40.270Z,50.00
2023-01-27T23:18:12.586Z,28.00
2023-01-27T23:20:43.380Z,48.33
2023-01-27T23:23:16.076Z,48.00
2023-01-27T23:25:46.022Z,43.00
2023-01-27T23:28:19.841Z,53.00
2023-01-27T23:30:50.182Z,50.33
2023-01-27T23:33:20.359Z,53.00
2023-01-27T23:35:49.153Z,53.67
2023-01-27T23:38:31.705Z,56.33
2023-01-27T23:41:08.972Z,55.67
2023-01-27T23:43:39.036Z,15.67
2023-01-27T23:46:08.084Z,59.67
2023-01-27T23:48:38.945Z,60.00
2023-01-27T23:51:10.494Z,59.33
2023-01-27T23:53:42.473Z,58.33
2023-01-27T23:56:20.484Z,63.33
2023-01-27T23:58:50.019Z,59.67
